sensor_id;sensor_type;location;lat;lon;timestamp;P1;durP1;ratioP1;P2;durP2;ratioP2
78889;SDS011;68279;48.964;14.502;2023-06-26T00:00:21;7.15;;;3.70;;
78889;SDS011;68279;48.964;14.502;2023-06-26T00:02:47;7.05;;;3.58;;
78889;SDS011;68279;48.964;14.502;2023-06-26T00:05:13;6.80;;;4.03;;
78889;SDS011;68279;48.964;14.502;2023-06-26T00:07:55;9.73;;;4.50;;
78889;SDS011;68279;48.964;14.502;2023-06-26T00:10:22;7.32;;;4.00;;
78889;SDS011;68279;48.964;14.502;2023-06-26T00:12:50;10.77;;;3.95;;
78889;SDS011;68279;48.964;14.502;2023-06-26T00:17:49;10.13;;;4.63;;
78889;SDS011;68279;48.964;14.502;2023-06-26T00:20:25;7.55;;;4.50;;
78889;SDS011;68279;48.964;14.502;2023-06-26T00:22:52;7.93;;;5.10;;
78889;SDS011;68279;48.964;14.502;2023-06-26T00:25:37;9.82;;;5.20;;
78889;SDS011;68279;48.964;14.502;2023-06-26T00:28:05;8.70;;;5.05;;
78889;SDS011;68279;48.964;14.502;2023-06-26T00:30:34;11.10;;;6.75;;
78889;SDS011;68279;48.964;14.502;2023-06-26T00:35:35;8.35;;;4.93;;
78889;SDS011;68279;48.964;14.502;2023-06-26T00:38:01;8.43;;;4.50;;
78889;SDS011;68279;48.964;14.502;2023-06-26T00:40:28;8.60;;;4.50;;
78889;SDS011;68279;48.964;14.502;2023-06-26T00:42:53;9.50;;;4.03;;
78889;SDS011;68279;48.964;14.502;2023-06-26T00:45:19;9.68;;;4.97;;
78889;SDS011;68279;48.964;14.502;2023-06-26T00:47:49;11.05;;;5.28;;
78889;SDS011;68279;48.964;14.502;2023-06-26T00:50:17;7.05;;;4.15;;
78889;SDS011;68279;48.964;14.502;2023-06-26T00:52:43;9.00;;;4.75;;
78889;SDS011;68279;48.964;14.502;2023-06-26T00:55:12;9.52;;;5.18;;
78889;SDS011;68279;48.964;14.502;2023-06-26T00:57:51;9.02;;;5.78;;
78889;SDS011;68279;48.964;14.502;2023-06-26T01:00:18;10.00;;;4.50;;
78889;SDS011;68279;48.964;14.502;2023-06-26T01:02:53;10.55;;;5.22;;
78889;SDS011;68279;48.964;14.502;2023-06-26T01:05:22;10.13;;;5.03;;
78889;SDS011;68279;48.964;14.502;2023-06-26T01:07:48;9.20;;;4.85;;
78889;SDS011;68279;48.964;14.502;2023-06-26T01:10:17;11.38;;;5.40;;
78889;SDS011;68279;48.964;14.502;2023-06-26T01:12:42;9.85;;;5.57;;
78889;SDS011;68279;48.964;14.502;2023-06-26T01:15:08;11.50;;;5.30;;
78889;SDS011;68279;48.964;14.502;2023-06-26T01:17:37;13.52;;;5.22;;
78889;SDS011;68279;48.964;14.502;2023-06-26T01:20:05;11.18;;;4.30;;
78889;SDS011;68279;48.964;14.502;2023-06-26T01:25:41;8.63;;;4.38;;
78889;SDS011;68279;48.964;14.502;2023-06-26T01:28:21;6.80;;;4.00;;
78889;SDS011;68279;48.964;14.502;2023-06-26T01:31:00;10.63;;;4.20;;
78889;SDS011;68279;48.964;14.502;2023-06-26T01:33:28;7.82;;;4.47;;
78889;SDS011;68279;48.964;14.502;2023-06-26T01:35:59;10.18;;;5.43;;
78889;SDS011;68279;48.964;14.502;2023-06-26T01:38:26;10.27;;;5.55;;
78889;SDS011;68279;48.964;14.502;2023-06-26T01:40:54;10.77;;;5.85;;
78889;SDS011;68279;48.964;14.502;2023-06-26T01:49:33;9.32;;;5.05;;
78889;SDS011;68279;48.964;14.502;2023-06-26T01:58:02;10.52;;;4.55;;
78889;SDS011;68279;48.964;14.502;2023-06-26T02:00:39;13.38;;;6.20;;
78889;SDS011;68279;48.964;14.502;2023-06-26T02:03:11;9.80;;;5.63;;
78889;SDS011;68279;48.964;14.502;2023-06-26T02:05:37;13.38;;;5.00;;
78889;SDS011;68279;48.964;14.502;2023-06-26T02:08:03;12.13;;;5.43;;
78889;SDS011;68279;48.964;14.502;2023-06-26T02:10:38;9.15;;;4.28;;
78889;SDS011;68279;48.964;14.502;2023-06-26T02:13:08;9.77;;;5.13;;
78889;SDS011;68279;48.964;14.502;2023-06-26T02:15:36;9.38;;;5.65;;
78889;SDS011;68279;48.964;14.502;2023-06-26T02:18:03;9.63;;;5.28;;
78889;SDS011;68279;48.964;14.502;2023-06-26T02:20:32;8.55;;;4.07;;
78889;SDS011;68279;48.964;14.502;2023-06-26T02:23:11;8.32;;;4.57;;
78889;SDS011;68279;48.964;14.502;2023-06-26T02:25:39;10.23;;;4.35;;
78889;SDS011;68279;48.964;14.502;2023-06-26T02:28:09;9.75;;;5.45;;
78889;SDS011;68279;48.964;14.502;2023-06-26T02:30:36;8.50;;;4.93;;
78889;SDS011;68279;48.964;14.502;2023-06-26T02:33:20;7.60;;;5.00;;
78889;SDS011;68279;48.964;14.502;2023-06-26T02:35:50;9.55;;;4.57;;
78889;SDS011;68279;48.964;14.502;2023-06-26T02:40:47;8.30;;;4.28;;
78889;SDS011;68279;48.964;14.502;2023-06-26T02:43:13;7.85;;;4.43;;
78889;SDS011;68279;48.964;14.502;2023-06-26T02:45:48;8.73;;;5.50;;
78889;SDS011;68279;48.964;14.502;2023-06-26T02:48:15;11.23;;;5.25;;
78889;SDS011;68279;48.964;14.502;2023-06-26T02:50:46;9.32;;;4.63;;
78889;SDS011;68279;48.964;14.502;2023-06-26T02:53:13;14.93;;;5.25;;
78889;SDS011;68279;48.964;14.502;2023-06-26T02:55:45;9.65;;;5.00;;
78889;SDS011;68279;48.964;14.502;2023-06-26T02:58:20;12.93;;;5.28;;
78889;SDS011;68279;48.964;14.502;2023-06-26T03:00:49;9.63;;;5.05;;
78889;SDS011;68279;48.964;14.502;2023-06-26T03:08:29;13.23;;;5.45;;
78889;SDS011;68279;48.964;14.502;2023-06-26T03:10:59;10.82;;;5.32;;
78889;SDS011;68279;48.964;14.502;2023-06-26T03:13:36;9.32;;;5.88;;
78889;SDS011;68279;48.964;14.502;2023-06-26T03:16:04;7.25;;;4.60;;
78889;SDS011;68279;48.964;14.502;2023-06-26T03:21:10;8.57;;;5.20;;
78889;SDS011;68279;48.964;14.502;2023-06-26T03:23:41;12.40;;;6.28;;
78889;SDS011;68279;48.964;14.502;2023-06-26T03:26:08;11.25;;;5.85;;
78889;SDS011;68279;48.964;14.502;2023-06-26T03:28:41;11.23;;;5.80;;
78889;SDS011;68279;48.964;14.502;2023-06-26T03:33:54;12.32;;;5.95;;
78889;SDS011;68279;48.964;14.502;2023-06-26T03:36:29;9.38;;;5.53;;
78889;SDS011;68279;48.964;14.502;2023-06-26T03:41:58;10.35;;;5.40;;
78889;SDS011;68279;48.964;14.502;2023-06-26T03:46:59;10.65;;;6.10;;
78889;SDS011;68279;48.964;14.502;2023-06-26T03:49:25;11.23;;;5.53;;
78889;SDS011;68279;48.964;14.502;2023-06-26T03:52:01;13.20;;;6.70;;
78889;SDS011;68279;48.964;14.502;2023-06-26T03:54:26;9.73;;;6.03;;
78889;SDS011;68279;48.964;14.502;2023-06-26T03:56:52;12.73;;;6.03;;
78889;SDS011;68279;48.964;14.502;2023-06-26T03:59:18;8.30;;;5.13;;
78889;SDS011;68279;48.964;14.502;2023-06-26T04:01:43;8.98;;;5.15;;
78889;SDS011;68279;48.964;14.502;2023-06-26T04:04:09;14.43;;;5.35;;
78889;SDS011;68279;48.964;14.502;2023-06-26T04:06:36;10.50;;;4.97;;
78889;SDS011;68279;48.964;14.502;2023-06-26T04:09:04;9.05;;;4.80;;
78889;SDS011;68279;48.964;14.502;2023-06-26T04:11:31;12.00;;;6.35;;
78889;SDS011;68279;48.964;14.502;2023-06-26T04:13:57;9.73;;;5.97;;
78889;SDS011;68279;48.964;14.502;2023-06-26T04:16:23;12.18;;;5.55;;
78889;SDS011;68279;48.964;14.502;2023-06-26T04:18:50;10.27;;;5.38;;
78889;SDS011;68279;48.964;14.502;2023-06-26T04:21:20;9.13;;;5.65;;
78889;SDS011;68279;48.964;14.502;2023-06-26T04:23:48;12.15;;;6.32;;
78889;SDS011;68279;48.964;14.502;2023-06-26T04:26:17;10.40;;;5.55;;
78889;SDS011;68279;48.964;14.502;2023-06-26T04:28:44;12.15;;;6.45;;
78889;SDS011;68279;48.964;14.502;2023-06-26T04:31:10;8.85;;;5.85;;
78889;SDS011;68279;48.964;14.502;2023-06-26T04:33:44;11.68;;;6.72;;
78889;SDS011;68279;48.964;14.502;2023-06-26T04:41:21;10.55;;;5.65;;
78889;SDS011;68279;48.964;14.502;2023-06-26T04:43:47;10.65;;;5.38;;
78889;SDS011;68279;48.964;14.502;2023-06-26T04:46:12;11.82;;;6.28;;
78889;SDS011;68279;48.964;14.502;2023-06-26T04:48:42;11.43;;;5.63;;
78889;SDS011;68279;48.964;14.502;2023-06-26T04:51:09;10.75;;;5.90;;
78889;SDS011;68279;48.964;14.502;2023-06-26T04:53:35;11.15;;;5.95;;
78889;SDS011;68279;48.964;14.502;2023-06-26T04:56:01;9.60;;;5.50;;
78889;SDS011;68279;48.964;14.502;2023-06-26T04:58:27;9.63;;;6.15;;
78889;SDS011;68279;48.964;14.502;2023-06-26T05:00:54;11.00;;;5.43;;
78889;SDS011;68279;48.964;14.502;2023-06-26T05:03:19;9.85;;;5.32;;
78889;SDS011;68279;48.964;14.502;2023-06-26T05:05:45;10.88;;;5.43;;
78889;SDS011;68279;48.964;14.502;2023-06-26T05:08:15;9.88;;;6.07;;
78889;SDS011;68279;48.964;14.502;2023-06-26T05:10:48;9.65;;;5.63;;
78889;SDS011;68279;48.964;14.502;2023-06-26T05:13:14;9.18;;;5.15;;
78889;SDS011;68279;48.964;14.502;2023-06-26T05:15:43;10.15;;;5.30;;
78889;SDS011;68279;48.964;14.502;2023-06-26T05:18:09;10.52;;;5.22;;
78889;SDS011;68279;48.964;14.502;2023-06-26T05:20:35;9.20;;;4.97;;
78889;SDS011;68279;48.964;14.502;2023-06-26T05:23:02;10.93;;;5.20;;
78889;SDS011;68279;48.964;14.502;2023-06-26T05:25:28;9.60;;;6.05;;
78889;SDS011;68279;48.964;14.502;2023-06-26T05:27:55;8.65;;;4.85;;
78889;SDS011;68279;48.964;14.502;2023-06-26T05:30:22;9.55;;;5.00;;
78889;SDS011;68279;48.964;14.502;2023-06-26T05:32:50;8.68;;;5.05;;
78889;SDS011;68279;48.964;14.502;2023-06-26T05:35:18;8.68;;;5.45;;
78889;SDS011;68279;48.964;14.502;2023-06-26T05:37:50;9.07;;;5.13;;
78889;SDS011;68279;48.964;14.502;2023-06-26T05:40:17;8.45;;;4.65;;
78889;SDS011;68279;48.964;14.502;2023-06-26T05:42:44;10.60;;;5.28;;
78889;SDS011;68279;48.964;14.502;2023-06-26T05:45:10;11.35;;;5.00;;
78889;SDS011;68279;48.964;14.502;2023-06-26T05:47:36;8.32;;;4.68;;
78889;SDS011;68279;48.964;14.502;2023-06-26T05:50:02;9.02;;;5.35;;
78889;SDS011;68279;48.964;14.502;2023-06-26T05:52:28;7.75;;;4.97;;
78889;SDS011;68279;48.964;14.502;2023-06-26T05:54:55;9.00;;;5.85;;
78889;SDS011;68279;48.964;14.502;2023-06-26T05:57:24;8.25;;;5.10;;
78889;SDS011;68279;48.964;14.502;2023-06-26T05:59:50;8.93;;;5.25;;
78889;SDS011;68279;48.964;14.502;2023-06-26T06:02:16;12.50;;;5.20;;
78889;SDS011;68279;48.964;14.502;2023-06-26T06:04:42;7.50;;;4.63;;
78889;SDS011;68279;48.964;14.502;2023-06-26T06:07:07;7.32;;;4.22;;
78889;SDS011;68279;48.964;14.502;2023-06-26T06:09:33;8.60;;;5.43;;
78889;SDS011;68279;48.964;14.502;2023-06-26T06:11:59;12.75;;;5.72;;
78889;SDS011;68279;48.964;14.502;2023-06-26T06:14:27;8.05;;;4.68;;
78889;SDS011;68279;48.964;14.502;2023-06-26T06:16:53;7.35;;;5.15;;
78889;SDS011;68279;48.964;14.502;2023-06-26T06:19:19;8.73;;;5.15;;
78889;SDS011;68279;48.964;14.502;2023-06-26T06:21:45;8.63;;;4.90;;
78889;SDS011;68279;48.964;14.502;2023-06-26T06:24:11;8.50;;;5.20;;
78889;SDS011;68279;48.964;14.502;2023-06-26T06:26:37;7.55;;;4.65;;
78889;SDS011;68279;48.964;14.502;2023-06-26T06:29:02;7.13;;;4.65;;
78889;SDS011;68279;48.964;14.502;2023-06-26T06:31:28;6.55;;;4.60;;
78889;SDS011;68279;48.964;14.502;2023-06-26T06:33:55;7.75;;;4.40;;
78889;SDS011;68279;48.964;14.502;2023-06-26T06:36:20;10.07;;;5.28;;
78889;SDS011;68279;48.964;14.502;2023-06-26T06:38:46;8.52;;;5.50;;
78889;SDS011;68279;48.964;14.502;2023-06-26T06:41:11;9.93;;;5.18;;
78889;SDS011;68279;48.964;14.502;2023-06-26T06:43:38;9.75;;;5.50;;
78889;SDS011;68279;48.964;14.502;2023-06-26T06:46:06;7.20;;;5.28;;
78889;SDS011;68279;48.964;14.502;2023-06-26T06:48:32;6.57;;;4.68;;
78889;SDS011;68279;48.964;14.502;2023-06-26T06:50:57;8.55;;;4.82;;
78889;SDS011;68279;48.964;14.502;2023-06-26T06:53:30;7.75;;;4.95;;
78889;SDS011;68279;48.964;14.502;2023-06-26T06:55:56;9.82;;;5.70;;
78889;SDS011;68279;48.964;14.502;2023-06-26T06:58:22;8.48;;;5.80;;
78889;SDS011;68279;48.964;14.502;2023-06-26T07:00:48;7.55;;;4.68;;
78889;SDS011;68279;48.964;14.502;2023-06-26T07:03:14;11.43;;;5.22;;
78889;SDS011;68279;48.964;14.502;2023-06-26T07:05:43;7.72;;;5.18;;
78889;SDS011;68279;48.964;14.502;2023-06-26T07:08:09;8.50;;;4.93;;
78889;SDS011;68279;48.964;14.502;2023-06-26T07:10:34;8.88;;;5.60;;
78889;SDS011;68279;48.964;14.502;2023-06-26T07:13:01;10.20;;;5.78;;
78889;SDS011;68279;48.964;14.502;2023-06-26T07:15:27;7.53;;;4.93;;
78889;SDS011;68279;48.964;14.502;2023-06-26T07:17:52;8.10;;;4.72;;
78889;SDS011;68279;48.964;14.502;2023-06-26T07:20:18;8.38;;;5.38;;
78889;SDS011;68279;48.964;14.502;2023-06-26T07:22:44;7.82;;;4.85;;
78889;SDS011;68279;48.964;14.502;2023-06-26T07:25:10;10.55;;;5.20;;
78889;SDS011;68279;48.964;14.502;2023-06-26T07:27:39;8.45;;;4.78;;
78889;SDS011;68279;48.964;14.502;2023-06-26T07:30:06;9.80;;;5.32;;
78889;SDS011;68279;48.964;14.502;2023-06-26T07:32:35;8.43;;;5.03;;
78889;SDS011;68279;48.964;14.502;2023-06-26T07:35:01;7.10;;;4.88;;
78889;SDS011;68279;48.964;14.502;2023-06-26T07:37:29;6.60;;;4.53;;
78889;SDS011;68279;48.964;14.502;2023-06-26T07:39:55;6.75;;;4.80;;
78889;SDS011;68279;48.964;14.502;2023-06-26T07:42:20;7.93;;;4.68;;
78889;SDS011;68279;48.964;14.502;2023-06-26T07:44:46;7.38;;;4.78;;
78889;SDS011;68279;48.964;14.502;2023-06-26T07:47:12;8.52;;;4.78;;
78889;SDS011;68279;48.964;14.502;2023-06-26T07:49:37;7.05;;;5.10;;
78889;SDS011;68279;48.964;14.502;2023-06-26T07:52:04;7.03;;;4.65;;
78889;SDS011;68279;48.964;14.502;2023-06-26T07:54:30;7.53;;;4.55;;
78889;SDS011;68279;48.964;14.502;2023-06-26T07:57:01;9.30;;;4.45;;
78889;SDS011;68279;48.964;14.502;2023-06-26T07:59:27;6.68;;;4.53;;
78889;SDS011;68279;48.964;14.502;2023-06-26T08:01:55;6.18;;;4.40;;
78889;SDS011;68279;48.964;14.502;2023-06-26T08:04:22;6.53;;;4.05;;
78889;SDS011;68279;48.964;14.502;2023-06-26T08:06:53;7.10;;;4.90;;
78889;SDS011;68279;48.964;14.502;2023-06-26T08:09:22;8.95;;;5.30;;
78889;SDS011;68279;48.964;14.502;2023-06-26T08:11:49;6.60;;;4.38;;
78889;SDS011;68279;48.964;14.502;2023-06-26T08:14:15;8.70;;;4.53;;
78889;SDS011;68279;48.964;14.502;2023-06-26T08:16:41;8.68;;;4.90;;
78889;SDS011;68279;48.964;14.502;2023-06-26T08:19:07;7.15;;;4.53;;
78889;SDS011;68279;48.964;14.502;2023-06-26T08:21:33;6.40;;;4.32;;
78889;SDS011;68279;48.964;14.502;2023-06-26T08:23:59;8.43;;;4.53;;
78889;SDS011;68279;48.964;14.502;2023-06-26T08:26:25;7.57;;;4.57;;
78889;SDS011;68279;48.964;14.502;2023-06-26T08:28:50;6.05;;;4.25;;
78889;SDS011;68279;48.964;14.502;2023-06-26T08:31:16;6.13;;;4.00;;
78889;SDS011;68279;48.964;14.502;2023-06-26T08:33:42;7.50;;;3.95;;
78889;SDS011;68279;48.964;14.502;2023-06-26T08:36:08;7.00;;;4.15;;
78889;SDS011;68279;48.964;14.502;2023-06-26T08:38:34;8.20;;;5.13;;
78889;SDS011;68279;48.964;14.502;2023-06-26T08:41:00;6.43;;;4.55;;
78889;SDS011;68279;48.964;14.502;2023-06-26T08:43:25;9.50;;;4.50;;
78889;SDS011;68279;48.964;14.502;2023-06-26T08:45:52;7.03;;;4.47;;
78889;SDS011;68279;48.964;14.502;2023-06-26T08:48:18;6.63;;;4.40;;
78889;SDS011;68279;48.964;14.502;2023-06-26T08:50:46;6.38;;;4.00;;
78889;SDS011;68279;48.964;14.502;2023-06-26T08:55:46;6.10;;;4.03;;
78889;SDS011;68279;48.964;14.502;2023-06-26T08:58:17;9.02;;;4.90;;
78889;SDS011;68279;48.964;14.502;2023-06-26T09:00:44;8.45;;;4.22;;
78889;SDS011;68279;48.964;14.502;2023-06-26T09:03:10;8.52;;;4.45;;
78889;SDS011;68279;48.964;14.502;2023-06-26T09:05:35;7.05;;;4.20;;
78889;SDS011;68279;48.964;14.502;2023-06-26T09:08:01;8.73;;;4.28;;
78889;SDS011;68279;48.964;14.502;2023-06-26T09:10:28;6.25;;;4.78;;
78889;SDS011;68279;48.964;14.502;2023-06-26T09:12:56;7.95;;;4.82;;
78889;SDS011;68279;48.964;14.502;2023-06-26T09:15:24;5.90;;;3.78;;
78889;SDS011;68279;48.964;14.502;2023-06-26T09:17:50;7.05;;;4.25;;
78889;SDS011;68279;48.964;14.502;2023-06-26T09:20:20;5.55;;;3.80;;
78889;SDS011;68279;48.964;14.502;2023-06-26T09:22:47;5.70;;;3.75;;
78889;SDS011;68279;48.964;14.502;2023-06-26T09:25:13;5.32;;;3.72;;
78889;SDS011;68279;48.964;14.502;2023-06-26T09:27:39;5.47;;;3.70;;
78889;SDS011;68279;48.964;14.502;2023-06-26T09:30:08;5.45;;;3.50;;
78889;SDS011;68279;48.964;14.502;2023-06-26T09:32:37;5.70;;;3.38;;
78889;SDS011;68279;48.964;14.502;2023-06-26T09:35:03;4.55;;;3.33;;
78889;SDS011;68279;48.964;14.502;2023-06-26T09:37:29;5.30;;;3.08;;
78889;SDS011;68279;48.964;14.502;2023-06-26T09:39:55;5.82;;;3.20;;
78889;SDS011;68279;48.964;14.502;2023-06-26T09:42:21;5.07;;;3.50;;
78889;SDS011;68279;48.964;14.502;2023-06-26T09:44:47;4.50;;;3.25;;
78889;SDS011;68279;48.964;14.502;2023-06-26T09:47:16;5.22;;;3.40;;
78889;SDS011;68279;48.964;14.502;2023-06-26T09:49:44;4.75;;;3.45;;
78889;SDS011;68279;48.964;14.502;2023-06-26T09:52:10;4.80;;;3.40;;
78889;SDS011;68279;48.964;14.502;2023-06-26T09:54:40;6.75;;;3.78;;
78889;SDS011;68279;48.964;14.502;2023-06-26T09:57:09;5.40;;;3.40;;
78889;SDS011;68279;48.964;14.502;2023-06-26T09:59:36;5.03;;;3.33;;
78889;SDS011;68279;48.964;14.502;2023-06-26T10:02:01;5.22;;;3.40;;
78889;SDS011;68279;48.964;14.502;2023-06-26T10:04:27;5.45;;;3.10;;
78889;SDS011;68279;48.964;14.502;2023-06-26T10:06:54;7.72;;;3.72;;
78889;SDS011;68279;48.964;14.502;2023-06-26T10:09:21;5.90;;;3.72;;
78889;SDS011;68279;48.964;14.502;2023-06-26T10:11:54;6.68;;;3.55;;
78889;SDS011;68279;48.964;14.502;2023-06-26T10:14:22;4.70;;;3.33;;
78889;SDS011;68279;48.964;14.502;2023-06-26T10:16:57;6.72;;;3.88;;
78889;SDS011;68279;48.964;14.502;2023-06-26T10:19:24;5.40;;;3.50;;
78889;SDS011;68279;48.964;14.502;2023-06-26T10:21:53;5.25;;;3.72;;
78889;SDS011;68279;48.964;14.502;2023-06-26T10:24:20;6.13;;;3.58;;
78889;SDS011;68279;48.964;14.502;2023-06-26T10:26:49;4.45;;;3.47;;
78889;SDS011;68279;48.964;14.502;2023-06-26T10:29:17;5.47;;;3.60;;
78889;SDS011;68279;48.964;14.502;2023-06-26T10:31:50;7.47;;;4.30;;
78889;SDS011;68279;48.964;14.502;2023-06-26T10:34:18;4.43;;;3.03;;
78889;SDS011;68279;48.964;14.502;2023-06-26T10:36:44;4.95;;;3.60;;
78889;SDS011;68279;48.964;14.502;2023-06-26T10:39:09;4.68;;;3.17;;
78889;SDS011;68279;48.964;14.502;2023-06-26T10:41:41;4.78;;;3.17;;
78889;SDS011;68279;48.964;14.502;2023-06-26T10:46:50;6.07;;;4.07;;
78889;SDS011;68279;48.964;14.502;2023-06-26T10:49:28;5.10;;;3.15;;
78889;SDS011;68279;48.964;14.502;2023-06-26T10:51:55;5.28;;;3.72;;
78889;SDS011;68279;48.964;14.502;2023-06-26T10:54:28;4.72;;;3.50;;
78889;SDS011;68279;48.964;14.502;2023-06-26T10:56:55;4.57;;;3.33;;
78889;SDS011;68279;48.964;14.502;2023-06-26T10:59:26;5.10;;;3.63;;
78889;SDS011;68279;48.964;14.502;2023-06-26T11:01:59;4.68;;;2.90;;
78889;SDS011;68279;48.964;14.502;2023-06-26T11:07:19;4.38;;;2.90;;
78889;SDS011;68279;48.964;14.502;2023-06-26T11:12:40;4.35;;;3.15;;
78889;SDS011;68279;48.964;14.502;2023-06-26T11:15:12;6.07;;;3.58;;
78889;SDS011;68279;48.964;14.502;2023-06-26T11:17:39;5.57;;;3.00;;
78889;SDS011;68279;48.964;14.502;2023-06-26T11:20:07;5.07;;;3.58;;
78889;SDS011;68279;48.964;14.502;2023-06-26T11:22:37;6.50;;;3.92;;
78889;SDS011;68279;48.964;14.502;2023-06-26T11:25:04;4.93;;;3.38;;
78889;SDS011;68279;48.964;14.502;2023-06-26T11:27:31;4.68;;;3.38;;
78889;SDS011;68279;48.964;14.502;2023-06-26T11:30:03;4.72;;;3.05;;
78889;SDS011;68279;48.964;14.502;2023-06-26T11:32:33;5.10;;;3.63;;
78889;SDS011;68279;48.964;14.502;2023-06-26T11:35:00;3.50;;;2.35;;
78889;SDS011;68279;48.964;14.502;2023-06-26T11:37:25;4.40;;;3.17;;
78889;SDS011;68279;48.964;14.502;2023-06-26T11:39:52;5.03;;;3.13;;
78889;SDS011;68279;48.964;14.502;2023-06-26T11:42:19;5.22;;;3.60;;
78889;SDS011;68279;48.964;14.502;2023-06-26T11:44:46;4.65;;;3.78;;
78889;SDS011;68279;48.964;14.502;2023-06-26T11:47:13;5.45;;;3.70;;
78889;SDS011;68279;48.964;14.502;2023-06-26T11:49:42;4.93;;;3.30;;
78889;SDS011;68279;48.964;14.502;2023-06-26T11:52:08;4.88;;;3.15;;
78889;SDS011;68279;48.964;14.502;2023-06-26T11:54:33;4.75;;;3.65;;
78889;SDS011;68279;48.964;14.502;2023-06-26T11:56:59;6.18;;;3.55;;
78889;SDS011;68279;48.964;14.502;2023-06-26T11:59:49;6.03;;;3.92;;
78889;SDS011;68279;48.964;14.502;2023-06-26T12:02:12;5.05;;;3.33;;
78889;SDS011;68279;48.964;14.502;2023-06-26T12:04:40;4.95;;;3.38;;
78889;SDS011;68279;48.964;14.502;2023-06-26T12:07:08;4.70;;;3.58;;
78889;SDS011;68279;48.964;14.502;2023-06-26T12:09:44;4.82;;;3.65;;
78889;SDS011;68279;48.964;14.502;2023-06-26T12:12:14;7.32;;;3.78;;
78889;SDS011;68279;48.964;14.502;2023-06-26T12:17:10;5.30;;;3.80;;
78889;SDS011;68279;48.964;14.502;2023-06-26T12:19:38;4.93;;;3.88;;
78889;SDS011;68279;48.964;14.502;2023-06-26T12:22:07;5.22;;;3.47;;
78889;SDS011;68279;48.964;14.502;2023-06-26T12:24:35;5.60;;;3.50;;
78889;SDS011;68279;48.964;14.502;2023-06-26T12:27:07;6.85;;;3.70;;
78889;SDS011;68279;48.964;14.502;2023-06-26T12:29:34;6.25;;;3.95;;
78889;SDS011;68279;48.964;14.502;2023-06-26T12:32:01;5.05;;;3.88;;
78889;SDS011;68279;48.964;14.502;2023-06-26T12:34:28;4.80;;;3.58;;
78889;SDS011;68279;48.964;14.502;2023-06-26T12:36:59;7.13;;;3.67;;
78889;SDS011;68279;48.964;14.502;2023-06-26T12:39:48;5.15;;;4.03;;
78889;SDS011;68279;48.964;14.502;2023-06-26T12:42:16;6.38;;;4.32;;
78889;SDS011;68279;48.964;14.502;2023-06-26T12:44:43;5.05;;;3.75;;
78889;SDS011;68279;48.964;14.502;2023-06-26T12:47:09;6.60;;;4.20;;
78889;SDS011;68279;48.964;14.502;2023-06-26T12:49:38;5.38;;;3.95;;
78889;SDS011;68279;48.964;14.502;2023-06-26T12:52:06;6.43;;;4.40;;
78889;SDS011;68279;48.964;14.502;2023-06-26T12:54:33;4.57;;;3.67;;
78889;SDS011;68279;48.964;14.502;2023-06-26T12:57:00;5.45;;;4.07;;
78889;SDS011;68279;48.964;14.502;2023-06-26T12:59:28;6.00;;;4.55;;
78889;SDS011;68279;48.964;14.502;2023-06-26T13:01:54;7.00;;;4.00;;
78889;SDS011;68279;48.964;14.502;2023-06-26T13:04:19;4.63;;;3.50;;
78889;SDS011;68279;48.964;14.502;2023-06-26T13:06:45;4.80;;;3.67;;
78889;SDS011;68279;48.964;14.502;2023-06-26T13:09:11;5.82;;;3.65;;
78889;SDS011;68279;48.964;14.502;2023-06-26T13:11:37;5.65;;;4.30;;
78889;SDS011;68279;48.964;14.502;2023-06-26T13:14:03;5.00;;;4.10;;
78889;SDS011;68279;48.964;14.502;2023-06-26T13:16:30;6.55;;;4.18;;
78889;SDS011;68279;48.964;14.502;2023-06-26T13:18:57;5.70;;;4.30;;
78889;SDS011;68279;48.964;14.502;2023-06-26T13:21:23;5.35;;;3.55;;
78889;SDS011;68279;48.964;14.502;2023-06-26T13:23:49;5.22;;;3.67;;
78889;SDS011;68279;48.964;14.502;2023-06-26T13:26:15;5.10;;;3.88;;
78889;SDS011;68279;48.964;14.502;2023-06-26T13:28:41;6.20;;;4.53;;
78889;SDS011;68279;48.964;14.502;2023-06-26T13:31:06;4.55;;;3.65;;
78889;SDS011;68279;48.964;14.502;2023-06-26T13:33:32;5.95;;;4.30;;
78889;SDS011;68279;48.964;14.502;2023-06-26T13:35:57;5.30;;;3.47;;
78889;SDS011;68279;48.964;14.502;2023-06-26T13:38:24;5.18;;;4.15;;
78889;SDS011;68279;48.964;14.502;2023-06-26T13:40:53;5.80;;;4.13;;
78889;SDS011;68279;48.964;14.502;2023-06-26T13:43:20;4.60;;;3.50;;
78889;SDS011;68279;48.964;14.502;2023-06-26T13:45:47;4.88;;;4.15;;
78889;SDS011;68279;48.964;14.502;2023-06-26T13:48:13;5.93;;;4.28;;
78889;SDS011;68279;48.964;14.502;2023-06-26T13:50:39;5.57;;;3.97;;
78889;SDS011;68279;48.964;14.502;2023-06-26T13:53:05;6.43;;;4.13;;
78889;SDS011;68279;48.964;14.502;2023-06-26T13:55:31;6.20;;;4.07;;
78889;SDS011;68279;48.964;14.502;2023-06-26T13:57:58;5.00;;;3.35;;
78889;SDS011;68279;48.964;14.502;2023-06-26T14:00:24;5.90;;;3.83;;
78889;SDS011;68279;48.964;14.502;2023-06-26T14:02:50;6.32;;;3.95;;
78889;SDS011;68279;48.964;14.502;2023-06-26T14:05:16;5.68;;;3.88;;
78889;SDS011;68279;48.964;14.502;2023-06-26T14:07:43;6.38;;;3.92;;
78889;SDS011;68279;48.964;14.502;2023-06-26T14:10:09;5.45;;;4.15;;
78889;SDS011;68279;48.964;14.502;2023-06-26T14:12:35;5.20;;;4.03;;
78889;SDS011;68279;48.964;14.502;2023-06-26T14:15:01;6.40;;;3.55;;
78889;SDS011;68279;48.964;14.502;2023-06-26T14:17:27;6.32;;;4.03;;
78889;SDS011;68279;48.964;14.502;2023-06-26T14:19:52;4.38;;;3.90;;
78889;SDS011;68279;48.964;14.502;2023-06-26T14:22:18;4.47;;;3.53;;
78889;SDS011;68279;48.964;14.502;2023-06-26T14:24:44;4.50;;;3.50;;
78889;SDS011;68279;48.964;14.502;2023-06-26T14:27:09;5.45;;;4.13;;
78889;SDS011;68279;48.964;14.502;2023-06-26T14:29:35;5.15;;;3.90;;
78889;SDS011;68279;48.964;14.502;2023-06-26T14:32:01;5.25;;;3.70;;
78889;SDS011;68279;48.964;14.502;2023-06-26T14:34:27;5.22;;;4.03;;
78889;SDS011;68279;48.964;14.502;2023-06-26T14:36:53;5.25;;;3.88;;
78889;SDS011;68279;48.964;14.502;2023-06-26T14:39:19;7.45;;;3.60;;
78889;SDS011;68279;48.964;14.502;2023-06-26T14:41:45;6.10;;;4.00;;
78889;SDS011;68279;48.964;14.502;2023-06-26T14:44:10;4.50;;;3.60;;
78889;SDS011;68279;48.964;14.502;2023-06-26T14:46:36;5.90;;;3.90;;
78889;SDS011;68279;48.964;14.502;2023-06-26T14:49:02;5.35;;;4.18;;
78889;SDS011;68279;48.964;14.502;2023-06-26T14:51:28;5.45;;;3.67;;
78889;SDS011;68279;48.964;14.502;2023-06-26T14:53:55;5.38;;;3.70;;
78889;SDS011;68279;48.964;14.502;2023-06-26T14:56:21;4.95;;;3.25;;
78889;SDS011;68279;48.964;14.502;2023-06-26T14:58:47;4.35;;;3.13;;
78889;SDS011;68279;48.964;14.502;2023-06-26T15:01:13;5.85;;;4.15;;
78889;SDS011;68279;48.964;14.502;2023-06-26T15:03:42;5.10;;;3.92;;
78889;SDS011;68279;48.964;14.502;2023-06-26T15:06:07;4.30;;;3.53;;
78889;SDS011;68279;48.964;14.502;2023-06-26T15:08:33;5.55;;;4.00;;
78889;SDS011;68279;48.964;14.502;2023-06-26T15:11:02;4.43;;;3.53;;
78889;SDS011;68279;48.964;14.502;2023-06-26T15:13:30;4.82;;;3.80;;
78889;SDS011;68279;48.964;14.502;2023-06-26T15:15:55;5.05;;;3.35;;
78889;SDS011;68279;48.964;14.502;2023-06-26T15:18:21;4.68;;;3.63;;
78889;SDS011;68279;48.964;14.502;2023-06-26T15:20:47;7.30;;;3.70;;
78889;SDS011;68279;48.964;14.502;2023-06-26T15:23:12;5.65;;;4.00;;
78889;SDS011;68279;48.964;14.502;2023-06-26T15:25:38;4.93;;;3.55;;
78889;SDS011;68279;48.964;14.502;2023-06-26T15:28:04;4.93;;;3.90;;
78889;SDS011;68279;48.964;14.502;2023-06-26T15:30:31;6.10;;;4.05;;
78889;SDS011;68279;48.964;14.502;2023-06-26T15:32:56;5.95;;;3.60;;